sensor_id;sensor_type;location;lat;lon;timestamp;pressure;altitude;pressure_sealevel;temperature;humidity
6349;BME280;3207;42.648;23.406;2022-09-09T00:02:15;99818.75;;;23.74;84.60
6349;BME280;3207;42.648;23.406;2022-09-09T00:04:51;99822.47;;;23.73;85.73
6349;BME280;3207;42.648;23.406;2022-09-09T00:07:27;99833.56;;;23.70;85.60
6349;BME280;3207;42.648;23.406;2022-09-09T00:10:09;99823.06;;;23.62;85.42
6349;BME280;3207;42.648;23.406;2022-09-09T00:12:43;99820.16;;;23.57;85.70
6349;BME280;3207;42.648;23.406;2022-09-09T00:15:19;99823.22;;;23.54;86.01
6349;BME280;3207;42.648;23.406;2022-09-09T00:17:49;99755.72;;;23.12;86.21
6349;BME280;3207;42.648;23.406;2022-09-09T00:20:24;99765.78;;;23.17;86.87
6349;BME280;3207;42.648;23.406;2022-09-09T00:22:59;99779.72;;;23.12;87.90
6349;BME280;3207;42.648;23.406;2022-09-09T00:25:31;99815.72;;;23.29;88.23
6349;BME280;3207;42.648;23.406;2022-09-09T00:28:02;99814.09;;;23.35;88.43
6349;BME280;3207;42.648;23.406;2022-09-09T00:30:36;99819.81;;;23.32;88.64
6349;BME280;3207;42.648;23.406;2022-09-09T00:33:11;99821.44;;;23.26;88.73
6349;BME280;3207;42.648;23.406;2022-09-09T00:35:44;99813.81;;;23.23;89.26
6349;BME280;3207;42.648;23.406;2022-09-09T00:38:14;99824.50;;;23.23;89.18
6349;BME280;3207;42.648;23.406;2022-09-09T00:40:49;99821.19;;;23.21;89.37
6349;BME280;3207;42.648;23.406;2022-09-09T00:43:28;99820.59;;;23.19;89.11
6349;BME280;3207;42.648;23.406;2022-09-09T00:46:11;99826.06;;;23.11;89.53
6349;BME280;3207;42.648;23.406;2022-09-09T00:48:50;99834.03;;;23.05;89.93
6349;BME280;3207;42.648;23.406;2022-09-09T00:51:28;99838.47;;;22.91;90.94
6349;BME280;3207;42.648;23.406;2022-09-09T00:54:16;99839.63;;;22.82;91.94
6349;BME280;3207;42.648;23.406;2022-09-09T00:56:52;99825.06;;;22.78;92.59
6349;BME280;3207;42.648;23.406;2022-09-09T00:59:32;99826.44;;;22.74;92.99
6349;BME280;3207;42.648;23.406;2022-09-09T01:02:04;99820.28;;;22.73;93.70
6349;BME280;3207;42.648;23.406;2022-09-09T01:04:38;99818.69;;;22.79;94.15
6349;BME280;3207;42.648;23.406;2022-09-09T01:07:16;99823.63;;;22.82;94.25
6349;BME280;3207;42.648;23.406;2022-09-09T01:09:51;99824.91;;;22.86;94.12
6349;BME280;3207;42.648;23.406;2022-09-09T01:12:25;99830.91;;;22.94;94.19
6349;BME280;3207;42.648;23.406;2022-09-09T01:14:58;99829.53;;;23.05;93.96
6349;BME280;3207;42.648;23.406;2022-09-09T01:17:32;99833.06;;;23.12;93.55
6349;BME280;3207;42.648;23.406;2022-09-09T01:20:06;99845.84;;;23.23;93.15
6349;BME280;3207;42.648;23.406;2022-09-09T01:22:44;99847.72;;;23.29;91.95
6349;BME280;3207;42.648;23.406;2022-09-09T01:25:22;99857.16;;;23.32;91.40
6349;BME280;3207;42.648;23.406;2022-09-09T01:27:56;99854.31;;;23.33;90.54
6349;BME280;3207;42.648;23.406;2022-09-09T01:30:25;99846.94;;;23.35;90.53
6349;BME280;3207;42.648;23.406;2022-09-09T01:32:54;99851.88;;;23.39;90.44
6349;BME280;3207;42.648;23.406;2022-09-09T01:35:32;99851.25;;;23.43;90.28
6349;BME280;3207;42.648;23.406;2022-09-09T01:38:00;99861.56;;;23.46;90.44
6349;BME280;3207;42.648;23.406;2022-09-09T01:40:27;99855.66;;;23.51;89.83
6349;BME280;3207;42.648;23.406;2022-09-09T01:42:56;99855.66;;;23.51;89.41
6349;BME280;3207;42.648;23.406;2022-09-09T01:45:23;99857.66;;;23.49;88.96
6349;BME280;3207;42.648;23.406;2022-09-09T01:47:52;99854.75;;;23.44;88.71
6349;BME280;3207;42.648;23.406;2022-09-09T01:50:20;99867.88;;;23.39;88.54
6349;BME280;3207;42.648;23.406;2022-09-09T01:52:49;99860.25;;;23.29;89.05
6349;BME280;3207;42.648;23.406;2022-09-09T01:55:18;99848.50;;;23.23;88.92
6349;BME280;3207;42.648;23.406;2022-09-09T01:57:52;99870.75;;;23.37;88.98
6349;BME280;3207;42.648;23.406;2022-09-09T02:00:24;99878.13;;;23.35;88.82
6349;BME280;3207;42.648;23.406;2022-09-09T02:02:56;99880.78;;;23.35;88.47
6349;BME280;3207;42.648;23.406;2022-09-09T02:05:34;99868.81;;;23.24;88.34
6349;BME280;3207;42.648;23.406;2022-09-09T02:08:06;99879.97;;;23.34;88.42
6349;BME280;3207;42.648;23.406;2022-09-09T02:10:42;99882.25;;;23.38;88.51
6349;BME280;3207;42.648;23.406;2022-09-09T02:13:13;99886.56;;;23.39;88.63
6349;BME280;3207;42.648;23.406;2022-09-09T02:15:44;99882.88;;;23.40;88.50
6349;BME280;3207;42.648;23.406;2022-09-09T02:18:15;99890.91;;;23.46;88.33
6349;BME280;3207;42.648;23.406;2022-09-09T02:20:44;99889.69;;;23.49;88.11
6349;BME280;3207;42.648;23.406;2022-09-09T02:23:14;99881.69;;;23.49;88.07
6349;BME280;3207;42.648;23.406;2022-09-09T02:25:41;99894.16;;;23.42;87.88
6349;BME280;3207;42.648;23.406;2022-09-09T02:28:10;99885.13;;;23.43;87.45
6349;BME280;3207;42.648;23.406;2022-09-09T02:30:41;99896.44;;;23.45;87.69
6349;BME280;3207;42.648;23.406;2022-09-09T02:33:10;99885.19;;;23.49;87.42
6349;BME280;3207;42.648;23.406;2022-09-09T02:35:39;99882.34;;;23.51;87.18
6349;BME280;3207;42.648;23.406;2022-09-09T02:38:09;99884.19;;;23.50;86.88
6349;BME280;3207;42.648;23.406;2022-09-09T02:40:37;99890.56;;;23.56;86.49
6349;BME280;3207;42.648;23.406;2022-09-09T02:43:04;99889.34;;;23.58;86.22
6349;BME280;3207;42.648;23.406;2022-09-09T02:45:36;99900.84;;;23.59;85.92
6349;BME280;3207;42.648;23.406;2022-09-09T02:48:14;99899.41;;;23.56;84.99
6349;BME280;3207;42.648;23.406;2022-09-09T02:50:45;99904.75;;;23.63;85.21
6349;BME280;3207;42.648;23.406;2022-09-09T02:53:17;99902.91;;;23.63;84.08
6349;BME280;3207;42.648;23.406;2022-09-09T02:55:48;99898.00;;;23.67;82.93
6349;BME280;3207;42.648;23.406;2022-09-09T02:58:16;99893.31;;;23.69;82.36
6349;BME280;3207;42.648;23.406;2022-09-09T03:00:45;99882.19;;;23.59;82.50
6349;BME280;3207;42.648;23.406;2022-09-09T03:03:15;99903.38;;;23.73;82.25
6349;BME280;3207;42.648;23.406;2022-09-09T03:05:42;99905.03;;;23.75;82.38
6349;BME280;3207;42.648;23.406;2022-09-09T03:08:10;99907.03;;;23.66;81.65
6349;BME280;3207;42.648;23.406;2022-09-09T03:10:37;99908.22;;;23.57;80.20
6349;BME280;3207;42.648;23.406;2022-09-09T03:13:03;99904.53;;;23.58;79.57
6349;BME280;3207;42.648;23.406;2022-09-09T03:15:34;99904.53;;;23.51;78.42
6349;BME280;3207;42.648;23.406;2022-09-09T03:18:01;99903.22;;;23.41;77.24
6349;BME280;3207;42.648;23.406;2022-09-09T03:20:30;99891.66;;;23.33;76.65
6349;BME280;3207;42.648;23.406;2022-09-09T03:22:58;99890.19;;;23.31;76.58
6349;BME280;3207;42.648;23.406;2022-09-09T03:25:25;99874.78;;;23.26;76.74
6349;BME280;3207;42.648;23.406;2022-09-09T03:27:54;99868.34;;;23.14;76.56
6349;BME280;3207;42.648;23.406;2022-09-09T03:30:21;99871.19;;;23.06;76.66
6349;BME280;3207;42.648;23.406;2022-09-09T03:32:48;99877.91;;;23.02;76.64
6349;BME280;3207;42.648;23.406;2022-09-09T03:35:16;99879.34;;;22.98;75.67
6349;BME280;3207;42.648;23.406;2022-09-09T03:37:44;99887.72;;;22.95;75.43
6349;BME280;3207;42.648;23.406;2022-09-09T03:40:11;99879.06;;;22.86;75.36
6349;BME280;3207;42.648;23.406;2022-09-09T03:42:39;99891.16;;;22.89;74.99
6349;BME280;3207;42.648;23.406;2022-09-09T03:45:08;99886.03;;;22.87;74.28
6349;BME280;3207;42.648;23.406;2022-09-09T03:47:36;99885.22;;;22.87;74.28
6349;BME280;3207;42.648;23.406;2022-09-09T03:50:03;99874.28;;;22.82;73.73
6349;BME280;3207;42.648;23.406;2022-09-09T03:52:34;99877.97;;;22.81;73.52
6349;BME280;3207;42.648;23.406;2022-09-09T03:55:03;99869.28;;;22.72;73.40
6349;BME280;3207;42.648;23.406;2022-09-09T03:57:30;99865.78;;;22.72;72.62
6349;BME280;3207;42.648;23.406;2022-09-09T03:59:57;99875.22;;;22.74;72.96
6349;BME280;3207;42.648;23.406;2022-09-09T04:02:26;99869.84;;;22.68;73.24
6349;BME280;3207;42.648;23.406;2022-09-09T04:04:53;99871.81;;;22.59;73.42
6349;BME280;3207;42.648;23.406;2022-09-09T04:07:20;99861.75;;;22.54;73.77
6349;BME280;3207;42.648;23.406;2022-09-09T04:09:46;99866.00;;;22.49;73.85
6349;BME280;3207;42.648;23.406;2022-09-09T04:12:15;99865.34;;;22.47;73.65
6349;BME280;3207;42.648;23.406;2022-09-09T04:14:42;99869.16;;;22.38;73.76
6349;BME280;3207;42.648;23.406;2022-09-09T04:17:08;99877.06;;;22.46;73.35
6349;BME280;3207;42.648;23.406;2022-09-09T04:19:35;99865.44;;;22.32;73.46
6349;BME280;3207;42.648;23.406;2022-09-09T04:22:02;99873.06;;;22.35;73.54
6349;BME280;3207;42.648;23.406;2022-09-09T04:24:28;99872.66;;;22.38;73.22
6349;BME280;3207;42.648;23.406;2022-09-09T04:26:55;99856.69;;;22.17;73.26
6349;BME280;3207;42.648;23.406;2022-09-09T04:29:24;99875.19;;;22.25;73.03
6349;BME280;3207;42.648;23.406;2022-09-09T04:31:50;99861.63;;;22.20;73.25
6349;BME280;3207;42.648;23.406;2022-09-09T04:34:18;99860.44;;;22.22;73.30
6349;BME280;3207;42.648;23.406;2022-09-09T04:36:45;99849.09;;;22.14;73.43
6349;BME280;3207;42.648;23.406;2022-09-09T04:39:12;99842.50;;;22.10;73.03
6349;BME280;3207;42.648;23.406;2022-09-09T04:41:39;99856.03;;;22.15;72.63
6349;BME280;3207;42.648;23.406;2022-09-09T04:44:06;99852.56;;;22.14;72.50
6349;BME280;3207;42.648;23.406;2022-09-09T04:46:34;99850.63;;;22.23;72.27
6349;BME280;3207;42.648;23.406;2022-09-09T04:49:01;99860.13;;;22.32;71.91
6349;BME280;3207;42.648;23.406;2022-09-09T04:51:28;99861.81;;;22.40;71.09
6349;BME280;3207;42.648;23.406;2022-09-09T04:53:56;99867.47;;;22.51;70.93
6349;BME280;3207;42.648;23.406;2022-09-09T04:56:23;99851.09;;;22.54;69.90
6349;BME280;3207;42.648;23.406;2022-09-09T04:58:52;99860.63;;;22.70;69.35
6349;BME280;3207;42.648;23.406;2022-09-09T05:01:21;99865.94;;;22.91;69.40
6349;BME280;3207;42.648;23.406;2022-09-09T05:03:50;99884.75;;;23.11;68.66
6349;BME280;3207;42.648;23.406;2022-09-09T05:06:20;99885.44;;;23.20;65.86
6349;BME280;3207;42.648;23.406;2022-09-09T05:08:47;99886.72;;;23.30;65.22
6349;BME280;3207;42.648;23.406;2022-09-09T05:11:19;99886.31;;;23.33;64.27
6349;BME280;3207;42.648;23.406;2022-09-09T05:13:47;99886.56;;;23.39;63.36
6349;BME280;3207;42.648;23.406;2022-09-09T05:16:15;99883.84;;;23.32;63.34
6349;BME280;3207;42.648;23.406;2022-09-09T05:18:43;99884.28;;;23.35;63.08
6349;BME280;3207;42.648;23.406;2022-09-09T05:21:14;99892.91;;;23.38;62.87
6349;BME280;3207;42.648;23.406;2022-09-09T05:23:40;99885.09;;;23.29;62.68
6349;BME280;3207;42.648;23.406;2022-09-09T05:26:11;99890.81;;;23.33;62.80
6349;BME280;3207;42.648;23.406;2022-09-09T05:28:39;99879.28;;;23.19;62.84
6349;BME280;3207;42.648;23.406;2022-09-09T05:31:06;99896.31;;;23.18;62.79
6349;BME280;3207;42.648;23.406;2022-09-09T05:33:34;99893.28;;;23.00;63.31
6349;BME280;3207;42.648;23.406;2022-09-09T05:36:03;99892.69;;;22.98;63.55
6349;BME280;3207;42.648;23.406;2022-09-09T05:38:32;99894.72;;;22.96;63.74
6349;BME280;3207;42.648;23.406;2022-09-09T05:40:59;99888.47;;;22.89;64.10
6349;BME280;3207;42.648;23.406;2022-09-09T05:43:26;99888.47;;;22.89;63.96
6349;BME280;3207;42.648;23.406;2022-09-09T05:46:01;99890.72;;;22.85;64.16
6349;BME280;3207;42.648;23.406;2022-09-09T05:48:30;99890.91;;;22.84;64.47
6349;BME280;3207;42.648;23.406;2022-09-09T05:50:57;99891.38;;;22.87;64.72
6349;BME280;3207;42.648;23.406;2022-09-09T05:53:25;99894.06;;;22.94;65.11
6349;BME280;3207;42.648;23.406;2022-09-09T05:56:00;99892.91;;;23.03;64.96
6349;BME280;3207;42.648;23.406;2022-09-09T05:58:28;99886.75;;;23.03;64.86
6349;BME280;3207;42.648;23.406;2022-09-09T06:01:01;99897.25;;;23.11;64.91
6349;BME280;3207;42.648;23.406;2022-09-09T06:03:28;99904.50;;;23.17;64.67
6349;BME280;3207;42.648;23.406;2022-09-09T06:05:59;99839.66;;;22.88;64.48
6349;BME280;3207;42.648;23.406;2022-09-09T06:08:26;99869.28;;;23.00;64.51
6349;BME280;3207;42.648;23.406;2022-09-09T06:10:53;99909.22;;;23.21;64.71
6349;BME280;3207;42.648;23.406;2022-09-09T06:13:21;99900.19;;;23.22;64.82
6349;BME280;3207;42.648;23.406;2022-09-09T06:15:51;99877.19;;;23.15;64.83
6349;BME280;3207;42.648;23.406;2022-09-09T06:18:18;99896.59;;;23.36;64.59
6349;BME280;3207;42.648;23.406;2022-09-09T06:20:53;99897.19;;;23.32;64.41
6349;BME280;3207;42.648;23.406;2022-09-09T06:23:21;99894.56;;;23.39;64.47
6349;BME280;3207;42.648;23.406;2022-09-09T06:25:48;99883.47;;;23.42;63.96
6349;BME280;3207;42.648;23.406;2022-09-09T06:28:16;99886.38;;;23.47;63.67
6349;BME280;3207;42.648;23.406;2022-09-09T06:30:45;99893.88;;;23.58;63.42
6349;BME280;3207;42.648;23.406;2022-09-09T06:33:12;99905.19;;;24.21;63.45
6349;BME280;3207;42.648;23.406;2022-09-09T06:35:39;99906.47;;;25.24;59.57
6349;BME280;3207;42.648;23.406;2022-09-09T06:38:06;99908.06;;;25.44;56.91
6349;BME280;3207;42.648;23.406;2022-09-09T06:40:34;99909.53;;;25.40;56.68
6349;BME280;3207;42.648;23.406;2022-09-09T06:43:00;99918.81;;;25.38;56.12
6349;BME280;3207;42.648;23.406;2022-09-09T06:45:27;99913.44;;;25.38;55.94
6349;BME280;3207;42.648;23.406;2022-09-09T06:47:56;99913.03;;;25.34;55.53
6349;BME280;3207;42.648;23.406;2022-09-09T06:50:23;99924.78;;;25.40;55.60
6349;BME280;3207;42.648;23.406;2022-09-09T06:52:50;99921.03;;;25.47;55.64
6349;BME280;3207;42.648;23.406;2022-09-09T06:55:17;99905.19;;;25.46;55.38
6349;BME280;3207;42.648;23.406;2022-09-09T06:57:44;99928.22;;;25.67;54.96
6349;BME280;3207;42.648;23.406;2022-09-09T07:00:12;99926.19;;;26.07;54.91
6349;BME280;3207;42.648;23.406;2022-09-09T07:02:39;99923.16;;;26.98;51.56
6349;BME280;3207;42.648;23.406;2022-09-09T07:05:08;99924.66;;;27.55;49.38
6349;BME280;3207;42.648;23.406;2022-09-09T07:07:36;99928.72;;;27.39;48.56
6349;BME280;3207;42.648;23.406;2022-09-09T07:10:03;99922.72;;;27.01;49.28
6349;BME280;3207;42.648;23.406;2022-09-09T07:12:31;99919.28;;;26.62;49.35
6349;BME280;3207;42.648;23.406;2022-09-09T07:14:57;99911.81;;;26.39;50.36
6349;BME280;3207;42.648;23.406;2022-09-09T07:17:24;99917.03;;;26.28;50.48
6349;BME280;3207;42.648;23.406;2022-09-09T07:19:51;99915.88;;;26.10;51.23
6349;BME280;3207;42.648;23.406;2022-09-09T07:22:19;99903.03;;;25.81;51.86
6349;BME280;3207;42.648;23.406;2022-09-09T07:24:46;99921.38;;;25.77;52.29
6349;BME280;3207;42.648;23.406;2022-09-09T07:27:15;99920.38;;;25.72;52.87
6349;BME280;3207;42.648;23.406;2022-09-09T07:29:41;99917.50;;;25.53;52.48
6349;BME280;3207;42.648;23.406;2022-09-09T07:32:08;99906.00;;;25.46;52.70
6349;BME280;3207;42.648;23.406;2022-09-09T07:34:35;99905.19;;;25.52;51.88
6349;BME280;3207;42.648;23.406;2022-09-09T07:37:02;99918.75;;;25.71;52.41
6349;BME280;3207;42.648;23.406;2022-09-09T07:39:30;99910.03;;;25.82;52.10
6349;BME280;3207;42.648;23.406;2022-09-09T07:41:57;99911.75;;;26.14;51.68
6349;BME280;3207;42.648;23.406;2022-09-09T07:44:24;99910.41;;;27.54;49.80
6349;BME280;3207;42.648;23.406;2022-09-09T07:46:52;99917.41;;;31.76;41.69
6349;BME280;3207;42.648;23.406;2022-09-09T07:49:19;99933.94;;;35.94;32.56
6349;BME280;3207;42.648;23.406;2022-09-09T07:51:47;99942.22;;;38.71;27.08
6349;BME280;3207;42.648;23.406;2022-09-09T07:54:16;99946.22;;;41.76;23.68
6349;BME280;3207;42.648;23.406;2022-09-09T07:56:46;99958.81;;;44.11;20.60
6349;BME280;3207;42.648;23.406;2022-09-09T07:59:14;99956.94;;;44.45;20.00
6349;BME280;3207;42.648;23.406;2022-09-09T08:01:43;99956.53;;;42.27;21.23
6349;BME280;3207;42.648;23.406;2022-09-09T08:04:12;99957.91;;;40.35;23.60
6349;BME280;3207;42.648;23.406;2022-09-09T08:06:43;99963.22;;;41.86;22.35
6349;BME280;3207;42.648;23.406;2022-09-09T08:09:10;99958.16;;;44.89;19.37
6349;BME280;3207;42.648;23.406;2022-09-09T08:11:39;99958.94;;;44.57;18.54
6349;BME280;3207;42.648;23.406;2022-09-09T08:14:08;99949.78;;;43.52;19.62
6349;BME280;3207;42.648;23.406;2022-09-09T08:16:37;99961.59;;;44.65;19.31
6349;BME280;3207;42.648;23.406;2022-09-09T08:19:04;99959.59;;;45.68;18.26
6349;BME280;3207;42.648;23.406;2022-09-09T08:21:34;99968.22;;;47.81;16.54
6349;BME280;3207;42.648;23.406;2022-09-09T08:24:02;99972.56;;;48.94;15.65
6349;BME280;3207;42.648;23.406;2022-09-09T08:26:31;99969.00;;;50.22;14.34
6349;BME280;3207;42.648;23.406;2022-09-09T08:29:00;99966.19;;;51.91;13.30
6349;BME280;3207;42.648;23.406;2022-09-09T08:31:31;99958.13;;;52.94;12.83
6349;BME280;3207;42.648;23.406;2022-09-09T08:34:06;99955.50;;;54.17;11.51
6349;BME280;3207;42.648;23.406;2022-09-09T08:36:36;99955.03;;;54.33;11.47
6349;BME280;3207;42.648;23.406;2022-09-09T08:39:04;99944.13;;;52.91;12.37
6349;BME280;3207;42.648;23.406;2022-09-09T08:41:42;99937.56;;;50.55;13.50
6349;BME280;3207;42.648;23.406;2022-09-09T08:44:19;99929.34;;;47.78;15.13
6349;BME280;3207;42.648;23.406;2022-09-09T08:46:59;99932.00;;;46.92;15.86
6349;BME280;3207;42.648;23.406;2022-09-09T08:49:43;99925.22;;;47.21;15.19
6349;BME280;3207;42.648;23.406;2022-09-09T08:52:18;99914.28;;;47.79;15.13
6349;BME280;3207;42.648;23.406;2022-09-09T08:54:47;99915.84;;;48.34;14.63
6349;BME280;3207;42.648;23.406;2022-09-09T08:57:26;99933.16;;;49.87;13.97
6349;BME280;3207;42.648;23.406;2022-09-09T08:59:55;99920.31;;;48.58;14.00
6349;BME280;3207;42.648;23.406;2022-09-09T09:02:26;99918.50;;;45.67;16.08
6349;BME280;3207;42.648;23.406;2022-09-09T09:05:08;99900.44;;;42.92;18.31
6349;BME280;3207;42.648;23.406;2022-09-09T09:07:55;99892.78;;;42.42;19.24
6349;BME280;3207;42.648;23.406;2022-09-09T09:10:36;99893.13;;;43.04;18.77
6349;BME280;3207;42.648;23.406;2022-09-09T09:13:13;99894.06;;;43.17;18.52
6349;BME280;3207;42.648;23.406;2022-09-09T09:15:42;99874.97;;;43.92;17.97
6349;BME280;3207;42.648;23.406;2022-09-09T09:18:13;99872.63;;;43.82;18.35
6349;BME280;3207;42.648;23.406;2022-09-09T09:20:47;99874.34;;;44.28;17.95
6349;BME280;3207;42.648;23.406;2022-09-09T09:23:21;99872.91;;;45.48;16.57
6349;BME280;3207;42.648;23.406;2022-09-09T09:25:50;99872.66;;;44.93;17.35
6349;BME280;3207;42.648;23.406;2022-09-09T09:28:22;99871.03;;;46.17;16.39
6349;BME280;3207;42.648;23.406;2022-09-09T09:30:52;99861.56;;;48.56;14.94
6349;BME280;3207;42.648;23.406;2022-09-09T09:33:26;99874.66;;;50.50;13.37
6349;BME280;3207;42.648;23.406;2022-09-09T09:35:54;99877.94;;;51.73;12.53
6349;BME280;3207;42.648;23.406;2022-09-09T09:38:23;99868.34;;;51.56;12.41
6349;BME280;3207;42.648;23.406;2022-09-09T09:40:51;99869.34;;;47.19;14.81
6349;BME280;3207;42.648;23.406;2022-09-09T09:43:23;99859.22;;;43.13;17.89
6349;BME280;3207;42.648;23.406;2022-09-09T09:45:51;99859.41;;;41.49;19.62
6349;BME280;3207;42.648;23.406;2022-09-09T09:48:17;99854.00;;;41.83;19.56
6349;BME280;3207;42.648;23.406;2022-09-09T09:50:51;99840.22;;;41.75;19.33
6349;BME280;3207;42.648;23.406;2022-09-09T09:53:24;99834.28;;;40.45;20.26
6349;BME280;3207;42.648;23.406;2022-09-09T09:55:55;99835.38;;;38.68;22.70
6349;BME280;3207;42.648;23.406;2022-09-09T09:58:25;99830.34;;;36.82;25.29
6349;BME280;3207;42.648;23.406;2022-09-09T10:00:55;99825.97;;;35.20;27.36
6349;BME280;3207;42.648;23.406;2022-09-09T10:03:25;99828.81;;;34.08;28.73
6349;BME280;3207;42.648;23.406;2022-09-09T10:05:54;99827.25;;;32.83;30.69
6349;BME280;3207;42.648;23.406;2022-09-09T10:08:22;99817.94;;;31.78;32.83
6349;BME280;3207;42.648;23.406;2022-09-09T10:11:01;99819.59;;;31.35;34.22
6349;BME280;3207;42.648;23.406;2022-09-09T10:13:38;99799.06;;;31.12;34.81
6349;BME280;3207;42.648;23.406;2022-09-09T10:16:20;99798.75;;;30.92;35.28
6349;BME280;3207;42.648;23.406;2022-09-09T10:18:58;99788.84;;;30.59;35.83
6349;BME280;3207;42.648;23.406;2022-09-09T10:21:46;99783.84;;;30.34;36.41
6349;BME280;3207;42.648;23.406;2022-09-09T10:24:36;99774.34;;;30.15;36.39
6349;BME280;3207;42.648;23.406;2022-09-09T10:27:17;99773.88;;;29.90;37.10
6349;BME280;3207;42.648;23.406;2022-09-09T10:30:00;99769.94;;;29.64;38.42
6349;BME280;3207;42.648;23.406;2022-09-09T10:32:38;99772.75;;;29.29;38.48
6349;BME280;3207;42.648;23.406;2022-09-09T10:35:14;99778.88;;;29.12;38.64
6349;BME280;3207;42.648;23.406;2022-09-09T10:38:02;99778.94;;;28.77;39.30
6349;BME280;3207;42.648;23.406;2022-09-09T10:40:32;99778.72;;;28.79;39.12
6349;BME280;3207;42.648;23.406;2022-09-09T10:43:12;99776.56;;;28.93;38.86
6349;BME280;3207;42.648;23.406;2022-09-09T10:45:49;99766.88;;;29.32;38.90
6349;BME280;3207;42.648;23.406;2022-09-09T10:48:31;99780.38;;;29.60;37.72
6349;BME280;3207;42.648;23.406;2022-09-09T10:51:19;99780.66;;;29.47;38.08
6349;BME280;3207;42.648;23.406;2022-09-09T10:53:58;99781.19;;;29.21;38.29
6349;BME280;3207;42.648;23.406;2022-09-09T10:56:30;99776.44;;;29.11;38.52
6349;BME280;3207;42.648;23.406;2022-09-09T10:59:00;99763.28;;;29.14;38.35
6349;BME280;3207;42.648;23.406;2022-09-09T11:01:32;99757.22;;;29.07;38.46
6349;BME280;3207;42.648;23.406;2022-09-09T11:04:05;99767.28;;;29.12;38.18
6349;BME280;3207;42.648;23.406;2022-09-09T11:06:39;99754.75;;;29.18;38.12
6349;BME280;3207;42.648;23.406;2022-09-09T11:09:15;99746.97;;;29.33;38.18
6349;BME280;3207;42.648;23.406;2022-09-09T11:11:46;99737.63;;;29.24;38.11
6349;BME280;3207;42.648;23.406;2022-09-09T11:14:21;99753.81;;;29.24;38.22
6349;BME280;3207;42.648;23.406;2022-09-09T11:16:55;99743.72;;;29.19;38.62
6349;BME280;3207;42.648;23.406;2022-09-09T11:19:28;99731.66;;;29.22;38.48
6349;BME280;3207;42.648;23.406;2022-09-09T11:22:01;99737.63;;;29.24;39.36
6349;BME280;3207;42.648;23.406;2022-09-09T11:24:33;99739.06;;;29.14;39.03
6349;BME280;3207;42.648;23.406;2022-09-09T11:27:08;99744.44;;;29.14;39.72
6349;BME280;3207;42.648;23.406;2022-09-09T11:32:59;99741.94;;;28.73;40.03
6349;BME280;3207;42.648;23.406;2022-09-09T11:35:35;99741.47;;;28.53;40.59
6349;BME280;3207;42.648;23.406;2022-09-09T11:38:25;99754.25;;;28.46;41.17
6349;BME280;3207;42.648;23.406;2022-09-09T11:40:59;99749.22;;;28.37;42.27
6349;BME280;3207;42.648;23.406;2022-09-09T11:43:30;99747.00;;;28.34;42.47
6349;BME280;3207;42.648;23.406;2022-09-09T11:46:00;99753.41;;;28.22;43.23
6349;BME280;3207;42.648;23.406;2022-09-09T11:48:32;99742.88;;;28.20;43.22
6349;BME280;3207;42.648;23.406;2022-09-09T11:51:02;99743.38;;;28.17;44.14
6349;BME280;3207;42.648;23.406;2022-09-09T11:53:30;99743.59;;;28.27;43.79
6349;BME280;3207;42.648;23.406;2022-09-09T11:56:09;99736.22;;;28.23;44.35
6349;BME280;3207;42.648;23.406;2022-09-09T11:58:42;99750.84;;;28.27;43.92
6349;BME280;3207;42.648;23.406;2022-09-09T12:01:27;99751.53;;;28.22;44.91
6349;BME280;3207;42.648;23.406;2022-09-09T12:04:02;99763.00;;;28.29;44.69
6349;BME280;3207;42.648;23.406;2022-09-09T12:06:33;99758.41;;;28.18;44.74
6349;BME280;3207;42.648;23.406;2022-09-09T12:09:12;99767.16;;;28.02;46.43
6349;BME280;3207;42.648;23.406;2022-09-09T12:11:43;99763.59;;;27.90;46.73
6349;BME280;3207;42.648;23.406;2022-09-09T12:14:19;99764.72;;;27.71;46.98
6349;BME280;3207;42.648;23.406;2022-09-09T12:16:48;99750.56;;;27.45;48.34
6349;BME280;3207;42.648;23.406;2022-09-09T12:19:19;99756.59;;;27.29;49.42
6349;BME280;3207;42.648;23.406;2022-09-09T12:21:53;99765.09;;;27.26;50.48
6349;BME280;3207;42.648;23.406;2022-09-09T12:24:28;99768.53;;;27.33;50.45
6349;BME280;3207;42.648;23.406;2022-09-09T12:27:06;99748.81;;;27.39;49.60
6349;BME280;3207;42.648;23.406;2022-09-09T12:29:40;99741.69;;;27.15;53.83
6349;BME280;3207;42.648;23.406;2022-09-09T12:32:11;99745.28;;;27.09;55.88
6349;BME280;3207;42.648;23.406;2022-09-09T12:34:40;99728.69;;;27.00;57.19
6349;BME280;3207;42.648;23.406;2022-09-09T12:37:15;99731.25;;;27.25;53.29
6349;BME280;3207;42.648;23.406;2022-09-09T12:39:47;99734.13;;;27.72;52.20
6349;BME280;3207;42.648;23.406;2022-09-09T12:42:20;99731.16;;;28.03;52.69
6349;BME280;3207;42.648;23.406;2022-09-09T12:44:54;99722.69;;;28.18;53.49
6349;BME280;3207;42.648;23.406;2022-09-09T12:47:24;99712.25;;;28.21;52.77
6349;BME280;3207;42.648;23.406;2022-09-09T12:49:52;99724.53;;;28.17;53.89
6349;BME280;3207;42.648;23.406;2022-09-09T12:52:26;99731.41;;;28.13;54.23
6349;BME280;3207;42.648;23.406;2022-09-09T12:54:55;99724.97;;;28.14;54.02
6349;BME280;3207;42.648;23.406;2022-09-09T12:57:25;99709.56;;;28.21;54.08
6349;BME280;3207;42.648;23.406;2022-09-09T13:00:05;99719.50;;;28.32;53.19
6349;BME280;3207;42.648;23.406;2022-09-09T13:02:33;99716.72;;;28.39;51.78
6349;BME280;3207;42.648;23.406;2022-09-09T13:05:08;99720.78;;;28.41;51.18
6349;BME280;3207;42.648;23.406;2022-09-09T13:07:40;99716.22;;;28.42;50.78
6349;BME280;3207;42.648;23.406;2022-09-09T13:10:11;99720.19;;;28.39;50.64
6349;BME280;3207;42.648;23.406;2022-09-09T13:12:40;99716.94;;;28.37;50.55
6349;BME280;3207;42.648;23.406;2022-09-09T13:15:16;99715.63;;;28.40;50.34
6349;BME280;3207;42.648;23.406;2022-09-09T13:17:51;99702.31;;;28.45;50.50
6349;BME280;3207;42.648;23.406;2022-09-09T13:20:20;99694.84;;;28.47;50.95
6349;BME280;3207;42.648;23.406;2022-09-09T13:22:48;99695.16;;;28.51;51.49
6349;BME280;3207;42.648;23.406;2022-09-09T13:25:21;99687.91;;;28.51;51.87
6349;BME280;3207;42.648;23.406;2022-09-09T13:28:03;99687.44;;;28.54;52.91
6349;BME280;3207;42.648;23.406;2022-09-09T13:30:31;99683.47;;;28.57;53.27
6349;BME280;3207;42.648;23.406;2022-09-09T13:33:04;99678.44;;;28.60;53.08
6349;BME280;3207;42.648;23.406;2022-09-09T13:35:32;99680.75;;;28.68;53.20